Aérodrome :
LOGIN :

S'inscrire | Disclaimer

   EN    FR    IT 

 










Légende :    VFR   VFR Marginal   IFR   IFR Intensif   IFR Très Intensif
Visi : 
Plafond : 
>= 8 km
>= 3000ft
5 à 8 km
1000 à 3000 ft
1500m à 5 km
500 à 1000 ft
800 à 1500m
200 à 500 ft
< 800m
< 200 ft
Symboles :   Orages  Brouillard  Fortes neiges  Fortes précipitations  Vent > 20 kt
SIGMETs :   Divers  Orages  Givrage  Turbulence  Onde Orograph.  Cendres Volcan.






- Altitude de l'aérodrome : 20 ft
- Code IATA : OIZ


DTTB - Sidi Ahmed Air Base

DERNIER METAR :
  • 150700Z 00000KT 9999 SCT016 XX/XX Q1005

METARs EXPIRÉS :
  • 150600Z 16005KT 9999 SCT016 XX/XX Q1005
  • 150500Z 16005KT 8000 SCT016 XX/XX Q1005

TAF TAF DTTB
Valide du 15 à 07h jusqu'au 15 à 16h UTC


150600Z 1507/1516 18005KT 9999 SCT016



MET'MAP, la Météo Aéronautique d'un coup d'oeil ! - Copyright ORBIFLY Décembre 2007 - Disclaimer

ORBIFLY MET'MAP TEAM :

Programmation & Développement : Alexandra Zaïnal
Conception & Développement : Baudouin d'Aumeries
Co-Programmation & Développement : Marc-Olivier Méhu
Soutien technique & logistique : Manuel Goepfert

Contact : metmap@orbifly.com




SOURCES & CREDITS :

   NOAA